sensor_id;sensor_type;location;lat;lon;timestamp;temperature;humidity
584;HTU21D;27024;54.068;12.116;2023-07-29T00:01:35;15.12;118.99
584;HTU21D;27024;54.068;12.116;2023-07-29T00:04:02;15.11;118.99
584;HTU21D;27024;54.068;12.116;2023-07-29T00:06:29;15.06;118.99
584;HTU21D;27024;54.068;12.116;2023-07-29T00:08:56;14.99;118.99
584;HTU21D;27024;54.068;12.116;2023-07-29T00:11:23;14.96;118.99
584;HTU21D;27024;54.068;12.116;2023-07-29T00:13:50;15.01;118.99
584;HTU21D;27024;54.068;12.116;2023-07-29T00:16:17;14.98;118.99
584;HTU21D;27024;54.068;12.116;2023-07-29T00:18:44;14.98;118.99
584;HTU21D;27024;54.068;12.116;2023-07-29T00:21:11;15.03;118.99
584;HTU21D;27024;54.068;12.116;2023-07-29T00:23:38;15.01;118.99
584;HTU21D;27024;54.068;12.116;2023-07-29T00:26:05;15.01;118.99
584;HTU21D;27024;54.068;12.116;2023-07-29T00:28:32;14.97;118.99
584;HTU21D;27024;54.068;12.116;2023-07-29T00:30:59;14.91;118.99
584;HTU21D;27024;54.068;12.116;2023-07-29T00:33:26;14.94;118.99
584;HTU21D;27024;54.068;12.116;2023-07-29T00:35:53;15.04;118.99
584;HTU21D;27024;54.068;12.116;2023-07-29T00:38:20;15.08;118.99
584;HTU21D;27024;54.068;12.116;2023-07-29T00:40:47;15.12;118.99
584;HTU21D;27024;54.068;12.116;2023-07-29T00:43:14;15.00;118.99
584;HTU21D;27024;54.068;12.116;2023-07-29T00:45:43;15.01;118.99
584;HTU21D;27024;54.068;12.116;2023-07-29T00:48:10;15.03;118.99
584;HTU21D;27024;54.068;12.116;2023-07-29T00:50:38;15.06;118.99
584;HTU21D;27024;54.068;12.116;2023-07-29T00:53:06;15.03;118.99
584;HTU21D;27024;54.068;12.116;2023-07-29T00:55:33;14.96;118.99
584;HTU21D;27024;54.068;12.116;2023-07-29T00:57:59;14.97;118.99
584;HTU21D;27024;54.068;12.116;2023-07-29T01:00:26;14.96;118.99
584;HTU21D;27024;54.068;12.116;2023-07-29T01:02:54;14.91;118.99
584;HTU21D;27024;54.068;12.116;2023-07-29T01:05:22;14.89;118.99
584;HTU21D;27024;54.068;12.116;2023-07-29T01:08:13;14.86;118.99
584;HTU21D;27024;54.068;12.116;2023-07-29T01:10:58;14.84;118.99
584;HTU21D;27024;54.068;12.116;2023-07-29T01:13:44;14.81;118.99
584;HTU21D;27024;54.068;12.116;2023-07-29T01:16:21;14.81;118.99
584;HTU21D;27024;54.068;12.116;2023-07-29T01:18:52;14.87;118.99
584;HTU21D;27024;54.068;12.116;2023-07-29T01:21:21;14.87;118.99
584;HTU21D;27024;54.068;12.116;2023-07-29T01:23:52;14.86;118.99
584;HTU21D;27024;54.068;12.116;2023-07-29T01:26:20;14.84;118.99
584;HTU21D;27024;54.068;12.116;2023-07-29T01:28:47;14.83;118.99
584;HTU21D;27024;54.068;12.116;2023-07-29T01:31:32;14.79;118.99
584;HTU21D;27024;54.068;12.116;2023-07-29T01:34:24;14.71;118.99
584;HTU21D;27024;54.068;12.116;2023-07-29T01:36:54;14.69;118.99
584;HTU21D;27024;54.068;12.116;2023-07-29T01:39:29;14.66;118.99
584;HTU21D;27024;54.068;12.116;2023-07-29T01:41:59;14.63;118.99
584;HTU21D;27024;54.068;12.116;2023-07-29T01:44:27;14.59;118.99
584;HTU21D;27024;54.068;12.116;2023-07-29T01:46:56;14.62;118.99
584;HTU21D;27024;54.068;12.116;2023-07-29T01:49:22;14.66;118.99
584;HTU21D;27024;54.068;12.116;2023-07-29T01:51:49;14.58;118.99
584;HTU21D;27024;54.068;12.116;2023-07-29T01:54:16;14.58;118.99
584;HTU21D;27024;54.068;12.116;2023-07-29T01:56:45;14.59;118.99
584;HTU21D;27024;54.068;12.116;2023-07-29T01:59:12;14.56;118.99
584;HTU21D;27024;54.068;12.116;2023-07-29T02:01:41;14.57;118.99
584;HTU21D;27024;54.068;12.116;2023-07-29T02:04:09;14.52;118.99
584;HTU21D;27024;54.068;12.116;2023-07-29T02:06:36;14.54;118.99
584;HTU21D;27024;54.068;12.116;2023-07-29T02:09:04;14.48;118.99
584;HTU21D;27024;54.068;12.116;2023-07-29T02:11:31;14.55;118.99
584;HTU21D;27024;54.068;12.116;2023-07-29T02:13:59;14.55;118.99
584;HTU21D;27024;54.068;12.116;2023-07-29T02:16:26;14.65;118.99
584;HTU21D;27024;54.068;12.116;2023-07-29T02:18:53;14.57;118.99
584;HTU21D;27024;54.068;12.116;2023-07-29T02:21:22;14.57;118.99
584;HTU21D;27024;54.068;12.116;2023-07-29T02:23:49;14.55;118.99
584;HTU21D;27024;54.068;12.116;2023-07-29T02:26:17;14.60;118.99
584;HTU21D;27024;54.068;12.116;2023-07-29T02:28:44;14.51;118.99
584;HTU21D;27024;54.068;12.116;2023-07-29T02:31:22;14.53;118.99
584;HTU21D;27024;54.068;12.116;2023-07-29T02:33:49;14.58;118.99
584;HTU21D;27024;54.068;12.116;2023-07-29T02:36:17;14.55;118.99
584;HTU21D;27024;54.068;12.116;2023-07-29T02:38:45;14.55;118.99
584;HTU21D;27024;54.068;12.116;2023-07-29T02:41:12;14.63;118.99
584;HTU21D;27024;54.068;12.116;2023-07-29T02:43:42;14.68;118.99
584;HTU21D;27024;54.068;12.116;2023-07-29T02:46:09;14.73;118.99
584;HTU21D;27024;54.068;12.116;2023-07-29T02:48:36;14.77;118.99
584;HTU21D;27024;54.068;12.116;2023-07-29T02:51:03;14.79;118.99
584;HTU21D;27024;54.068;12.116;2023-07-29T02:53:30;14.83;118.99
584;HTU21D;27024;54.068;12.116;2023-07-29T02:55:57;14.77;118.99
584;HTU21D;27024;54.068;12.116;2023-07-29T02:58:24;14.84;118.99
584;HTU21D;27024;54.068;12.116;2023-07-29T03:00:53;14.99;118.99
584;HTU21D;27024;54.068;12.116;2023-07-29T03:03:20;14.98;118.99
584;HTU21D;27024;54.068;12.116;2023-07-29T03:05:47;15.04;118.99
584;HTU21D;27024;54.068;12.116;2023-07-29T03:08:14;15.06;118.99
584;HTU21D;27024;54.068;12.116;2023-07-29T03:10:41;15.03;118.99
584;HTU21D;27024;54.068;12.116;2023-07-29T03:13:08;15.06;118.99
584;HTU21D;27024;54.068;12.116;2023-07-29T03:15:35;15.04;118.99
584;HTU21D;27024;54.068;12.116;2023-07-29T03:18:02;15.03;118.99
584;HTU21D;27024;54.068;12.116;2023-07-29T03:20:29;15.04;118.99
584;HTU21D;27024;54.068;12.116;2023-07-29T03:22:56;15.12;118.99
584;HTU21D;27024;54.068;12.116;2023-07-29T03:25:23;15.08;118.99
584;HTU21D;27024;54.068;12.116;2023-07-29T03:27:50;15.10;118.99
584;HTU21D;27024;54.068;12.116;2023-07-29T03:30:21;15.11;118.99
584;HTU21D;27024;54.068;12.116;2023-07-29T03:32:49;15.15;118.99
584;HTU21D;27024;54.068;12.116;2023-07-29T03:35:17;15.16;118.99
584;HTU21D;27024;54.068;12.116;2023-07-29T03:37:45;15.15;118.99
584;HTU21D;27024;54.068;12.116;2023-07-29T03:40:14;15.19;118.99
584;HTU21D;27024;54.068;12.116;2023-07-29T03:42:40;15.23;118.99
584;HTU21D;27024;54.068;12.116;2023-07-29T03:45:08;15.26;118.99
584;HTU21D;27024;54.068;12.116;2023-07-29T03:47:34;15.15;118.99
584;HTU21D;27024;54.068;12.116;2023-07-29T03:50:02;15.26;118.99
584;HTU21D;27024;54.068;12.116;2023-07-29T03:52:29;15.22;118.99
584;HTU21D;27024;54.068;12.116;2023-07-29T03:54:56;15.29;118.99
584;HTU21D;27024;54.068;12.116;2023-07-29T03:57:23;15.30;118.99
584;HTU21D;27024;54.068;12.116;2023-07-29T03:59:50;15.25;118.99
584;HTU21D;27024;54.068;12.116;2023-07-29T04:02:17;15.28;118.99
584;HTU21D;27024;54.068;12.116;2023-07-29T04:04:44;15.29;118.99
584;HTU21D;27024;54.068;12.116;2023-07-29T04:07:14;15.30;118.99
584;HTU21D;27024;54.068;12.116;2023-07-29T04:09:41;15.32;118.99
584;HTU21D;27024;54.068;12.116;2023-07-29T04:12:10;15.21;118.99
584;HTU21D;27024;54.068;12.116;2023-07-29T04:14:37;15.22;118.99
584;HTU21D;27024;54.068;12.116;2023-07-29T04:17:04;15.31;118.99
584;HTU21D;27024;54.068;12.116;2023-07-29T04:19:31;15.37;118.99
584;HTU21D;27024;54.068;12.116;2023-07-29T04:21:58;15.46;118.99
584;HTU21D;27024;54.068;12.116;2023-07-29T04:24:25;15.51;118.99
584;HTU21D;27024;54.068;12.116;2023-07-29T04:26:52;15.51;118.99
584;HTU21D;27024;54.068;12.116;2023-07-29T04:29:19;15.51;118.99
584;HTU21D;27024;54.068;12.116;2023-07-29T04:31:46;15.59;118.99
584;HTU21D;27024;54.068;12.116;2023-07-29T04:34:13;15.63;118.99
584;HTU21D;27024;54.068;12.116;2023-07-29T04:36:40;15.70;118.99
584;HTU21D;27024;54.068;12.116;2023-07-29T04:39:07;15.76;118.99
584;HTU21D;27024;54.068;12.116;2023-07-29T04:41:34;15.95;118.99
584;HTU21D;27024;54.068;12.116;2023-07-29T04:44:01;15.88;118.99
584;HTU21D;27024;54.068;12.116;2023-07-29T04:46:28;15.84;118.99
584;HTU21D;27024;54.068;12.116;2023-07-29T04:48:55;15.97;118.99
584;HTU21D;27024;54.068;12.116;2023-07-29T04:51:23;16.00;118.99
584;HTU21D;27024;54.068;12.116;2023-07-29T04:53:51;16.08;118.99
584;HTU21D;27024;54.068;12.116;2023-07-29T04:56:17;16.20;118.99
584;HTU21D;27024;54.068;12.116;2023-07-29T04:58:47;16.27;118.99
584;HTU21D;27024;54.068;12.116;2023-07-29T05:01:14;16.32;118.99
584;HTU21D;27024;54.068;12.116;2023-07-29T05:03:41;16.33;118.99
584;HTU21D;27024;54.068;12.116;2023-07-29T05:06:08;16.35;118.99
584;HTU21D;27024;54.068;12.116;2023-07-29T05:08:35;16.42;118.99
584;HTU21D;27024;54.068;12.116;2023-07-29T05:11:03;16.45;118.99
584;HTU21D;27024;54.068;12.116;2023-07-29T05:13:30;16.42;118.99
584;HTU21D;27024;54.068;12.116;2023-07-29T05:15:57;16.56;118.99
584;HTU21D;27024;54.068;12.116;2023-07-29T05:18:24;16.64;118.99
584;HTU21D;27024;54.068;12.116;2023-07-29T05:20:51;16.75;118.99
584;HTU21D;27024;54.068;12.116;2023-07-29T05:23:18;16.82;118.99
584;HTU21D;27024;54.068;12.116;2023-07-29T05:25:45;16.87;118.99
584;HTU21D;27024;54.068;12.116;2023-07-29T05:28:12;16.84;118.99
584;HTU21D;27024;54.068;12.116;2023-07-29T05:30:39;16.88;118.99
584;HTU21D;27024;54.068;12.116;2023-07-29T05:33:06;16.89;118.99
584;HTU21D;27024;54.068;12.116;2023-07-29T05:35:37;17.01;118.99
584;HTU21D;27024;54.068;12.116;2023-07-29T05:38:04;17.04;118.99
584;HTU21D;27024;54.068;12.116;2023-07-29T05:40:35;17.09;118.99
584;HTU21D;27024;54.068;12.116;2023-07-29T05:43:01;17.08;118.99
584;HTU21D;27024;54.068;12.116;2023-07-29T05:45:29;17.04;118.99
584;HTU21D;27024;54.068;12.116;2023-07-29T05:47:58;17.06;118.99
584;HTU21D;27024;54.068;12.116;2023-07-29T05:50:24;17.08;118.99
584;HTU21D;27024;54.068;12.116;2023-07-29T05:52:51;17.16;118.99
584;HTU21D;27024;54.068;12.116;2023-07-29T05:55:18;17.23;118.99
584;HTU21D;27024;54.068;12.116;2023-07-29T05:57:45;17.26;118.99
584;HTU21D;27024;54.068;12.116;2023-07-29T06:00:12;17.33;118.99
584;HTU21D;27024;54.068;12.116;2023-07-29T06:02:39;17.44;118.99
584;HTU21D;27024;54.068;12.116;2023-07-29T06:05:08;17.40;118.99
584;HTU21D;27024;54.068;12.116;2023-07-29T06:07:35;17.53;118.99
584;HTU21D;27024;54.068;12.116;2023-07-29T06:10:02;17.60;118.99
584;HTU21D;27024;54.068;12.116;2023-07-29T06:12:29;17.73;118.99
584;HTU21D;27024;54.068;12.116;2023-07-29T06:14:55;17.78;118.99
584;HTU21D;27024;54.068;12.116;2023-07-29T06:17:22;17.84;118.99
584;HTU21D;27024;54.068;12.116;2023-07-29T06:19:49;17.75;118.99
584;HTU21D;27024;54.068;12.116;2023-07-29T06:22:16;17.80;118.99
584;HTU21D;27024;54.068;12.116;2023-07-29T06:24:44;17.92;118.99
584;HTU21D;27024;54.068;12.116;2023-07-29T06:27:14;17.92;118.99
584;HTU21D;27024;54.068;12.116;2023-07-29T06:29:40;18.00;118.99
584;HTU21D;27024;54.068;12.116;2023-07-29T06:32:08;18.04;118.99
584;HTU21D;27024;54.068;12.116;2023-07-29T06:34:35;18.21;118.99
584;HTU21D;27024;54.068;12.116;2023-07-29T06:37:01;18.26;118.99
584;HTU21D;27024;54.068;12.116;2023-07-29T06:39:29;18.36;118.99
584;HTU21D;27024;54.068;12.116;2023-07-29T06:41:56;18.63;118.99
584;HTU21D;27024;54.068;12.116;2023-07-29T06:44:23;18.91;118.99
584;HTU21D;27024;54.068;12.116;2023-07-29T06:46:49;19.05;118.99
584;HTU21D;27024;54.068;12.116;2023-07-29T06:49:16;18.96;118.99
584;HTU21D;27024;54.068;12.116;2023-07-29T06:51:45;19.09;118.99
584;HTU21D;27024;54.068;12.116;2023-07-29T06:54:12;19.30;118.99
584;HTU21D;27024;54.068;12.116;2023-07-29T06:56:39;19.37;118.99
584;HTU21D;27024;54.068;12.116;2023-07-29T06:59:06;19.40;118.99
584;HTU21D;27024;54.068;12.116;2023-07-29T07:01:33;19.41;118.99
584;HTU21D;27024;54.068;12.116;2023-07-29T07:04:00;19.44;118.99
584;HTU21D;27024;54.068;12.116;2023-07-29T07:06:27;19.41;118.99
584;HTU21D;27024;54.068;12.116;2023-07-29T07:08:54;19.44;118.99
584;HTU21D;27024;54.068;12.116;2023-07-29T07:11:21;19.81;118.99
584;HTU21D;27024;54.068;12.116;2023-07-29T07:13:48;20.39;118.99
584;HTU21D;27024;54.068;12.116;2023-07-29T07:16:15;21.01;118.99
584;HTU21D;27024;54.068;12.116;2023-07-29T07:18:43;21.15;118.99
584;HTU21D;27024;54.068;12.116;2023-07-29T07:21:10;21.13;118.99
584;HTU21D;27024;54.068;12.116;2023-07-29T07:23:38;20.87;118.99
584;HTU21D;27024;54.068;12.116;2023-07-29T07:26:06;20.86;118.99
584;HTU21D;27024;54.068;12.116;2023-07-29T07:28:33;20.81;118.99
584;HTU21D;27024;54.068;12.116;2023-07-29T07:31:00;20.93;118.99
584;HTU21D;27024;54.068;12.116;2023-07-29T07:33:27;20.72;118.99
584;HTU21D;27024;54.068;12.116;2023-07-29T07:35:54;21.10;118.99
584;HTU21D;27024;54.068;12.116;2023-07-29T07:38:21;21.01;118.99
584;HTU21D;27024;54.068;12.116;2023-07-29T07:40:55;20.87;118.99
584;HTU21D;27024;54.068;12.116;2023-07-29T07:43:23;20.87;118.99
584;HTU21D;27024;54.068;12.116;2023-07-29T07:45:51;20.95;118.99
584;HTU21D;27024;54.068;12.116;2023-07-29T07:48:18;21.03;118.99
584;HTU21D;27024;54.068;12.116;2023-07-29T07:50:46;21.07;118.99
584;HTU21D;27024;54.068;12.116;2023-07-29T07:53:13;21.07;118.99
584;HTU21D;27024;54.068;12.116;2023-07-29T07:55:40;21.14;118.99
584;HTU21D;27024;54.068;12.116;2023-07-29T07:58:07;20.91;118.99
584;HTU21D;27024;54.068;12.116;2023-07-29T08:00:34;20.78;118.99
584;HTU21D;27024;54.068;12.116;2023-07-29T08:03:04;20.68;118.99
584;HTU21D;27024;54.068;12.116;2023-07-29T08:05:34;20.59;118.99
584;HTU21D;27024;54.068;12.116;2023-07-29T08:08:01;20.68;118.99
584;HTU21D;27024;54.068;12.116;2023-07-29T08:10:27;20.75;118.99
584;HTU21D;27024;54.068;12.116;2023-07-29T08:12:54;20.81;118.99
584;HTU21D;27024;54.068;12.116;2023-07-29T08:15:21;20.86;118.99
584;HTU21D;27024;54.068;12.116;2023-07-29T08:17:48;20.92;118.99
584;HTU21D;27024;54.068;12.116;2023-07-29T08:20:15;20.76;118.99
584;HTU21D;27024;54.068;12.116;2023-07-29T08:22:42;20.71;118.99
584;HTU21D;27024;54.068;12.116;2023-07-29T08:25:09;20.70;118.99
584;HTU21D;27024;54.068;12.116;2023-07-29T08:27:36;20.69;118.99
584;HTU21D;27024;54.068;12.116;2023-07-29T08:30:03;20.73;118.99
584;HTU21D;27024;54.068;12.116;2023-07-29T08:32:30;20.76;118.99
584;HTU21D;27024;54.068;12.116;2023-07-29T08:34:57;20.87;118.99
584;HTU21D;27024;54.068;12.116;2023-07-29T08:37:23;21.10;118.99
584;HTU21D;27024;54.068;12.116;2023-07-29T08:39:50;21.23;118.99
584;HTU21D;27024;54.068;12.116;2023-07-29T08:42:23;21.51;118.99
584;HTU21D;27024;54.068;12.116;2023-07-29T08:44:50;21.46;118.99
584;HTU21D;27024;54.068;12.116;2023-07-29T08:47:19;21.58;118.99
584;HTU21D;27024;54.068;12.116;2023-07-29T08:49:47;21.72;118.99
584;HTU21D;27024;54.068;12.116;2023-07-29T08:52:14;21.89;118.99
584;HTU21D;27024;54.068;12.116;2023-07-29T08:54:41;22.07;118.99
584;HTU21D;27024;54.068;12.116;2023-07-29T08:57:08;21.82;118.99
584;HTU21D;27024;54.068;12.116;2023-07-29T08:59:35;21.91;118.99
584;HTU21D;27024;54.068;12.116;2023-07-29T09:02:02;21.64;118.99
584;HTU21D;27024;54.068;12.116;2023-07-29T09:04:29;21.77;118.99
584;HTU21D;27024;54.068;12.116;2023-07-29T09:06:56;21.68;118.99
584;HTU21D;27024;54.068;12.116;2023-07-29T09:09:25;21.74;118.99
584;HTU21D;27024;54.068;12.116;2023-07-29T09:11:52;21.79;118.99
584;HTU21D;27024;54.068;12.116;2023-07-29T09:14:19;21.94;118.99
584;HTU21D;27024;54.068;12.116;2023-07-29T09:16:46;22.19;118.99
584;HTU21D;27024;54.068;12.116;2023-07-29T09:19:13;22.43;118.99
584;HTU21D;27024;54.068;12.116;2023-07-29T09:21:41;22.53;118.99
584;HTU21D;27024;54.068;12.116;2023-07-29T09:24:08;22.70;118.99
584;HTU21D;27024;54.068;12.116;2023-07-29T09:26:36;22.43;118.99
584;HTU21D;27024;54.068;12.116;2023-07-29T09:29:04;22.16;118.99
584;HTU21D;27024;54.068;12.116;2023-07-29T09:31:30;22.31;118.99
584;HTU21D;27024;54.068;12.116;2023-07-29T09:33:59;22.41;118.99
584;HTU21D;27024;54.068;12.116;2023-07-29T09:36:26;22.54;118.99
584;HTU21D;27024;54.068;12.116;2023-07-29T09:38:54;22.70;118.99
584;HTU21D;27024;54.068;12.116;2023-07-29T09:41:26;22.75;118.99
584;HTU21D;27024;54.068;12.116;2023-07-29T09:43:58;23.02;118.99
584;HTU21D;27024;54.068;12.116;2023-07-29T09:46:32;22.73;118.99
584;HTU21D;27024;54.068;12.116;2023-07-29T09:48:59;22.96;118.99
584;HTU21D;27024;54.068;12.116;2023-07-29T09:51:26;22.88;118.99
584;HTU21D;27024;54.068;12.116;2023-07-29T09:53:53;22.84;118.99
584;HTU21D;27024;54.068;12.116;2023-07-29T09:56:25;23.12;118.99
584;HTU21D;27024;54.068;12.116;2023-07-29T09:58:53;23.34;118.99
584;HTU21D;27024;54.068;12.116;2023-07-29T10:01:22;23.20;118.99
584;HTU21D;27024;54.068;12.116;2023-07-29T10:03:49;23.06;118.99
584;HTU21D;27024;54.068;12.116;2023-07-29T10:06:17;23.01;118.99
584;HTU21D;27024;54.068;12.116;2023-07-29T10:08:45;23.21;118.99
584;HTU21D;27024;54.068;12.116;2023-07-29T10:11:12;23.07;118.99
584;HTU21D;27024;54.068;12.116;2023-07-29T10:13:39;23.10;118.99
584;HTU21D;27024;54.068;12.116;2023-07-29T10:16:05;23.16;118.99
584;HTU21D;27024;54.068;12.116;2023-07-29T10:18:33;23.15;118.99
584;HTU21D;27024;54.068;12.116;2023-07-29T10:21:01;23.23;118.99
584;HTU21D;27024;54.068;12.116;2023-07-29T10:23:32;23.17;118.99
584;HTU21D;27024;54.068;12.116;2023-07-29T10:26:03;22.98;118.99
584;HTU21D;27024;54.068;12.116;2023-07-29T10:28:31;22.96;118.99
584;HTU21D;27024;54.068;12.116;2023-07-29T10:30:59;22.82;118.99
584;HTU21D;27024;54.068;12.116;2023-07-29T10:33:26;23.05;118.99
584;HTU21D;27024;54.068;12.116;2023-07-29T10:35:54;22.82;118.99
584;HTU21D;27024;54.068;12.116;2023-07-29T10:38:22;23.06;118.99
584;HTU21D;27024;54.068;12.116;2023-07-29T10:40:53;23.07;118.99
584;HTU21D;27024;54.068;12.116;2023-07-29T10:43:38;22.90;118.99
584;HTU21D;27024;54.068;12.116;2023-07-29T10:46:21;22.99;118.99
584;HTU21D;27024;54.068;12.116;2023-07-29T10:48:55;23.06;118.99
584;HTU21D;27024;54.068;12.116;2023-07-29T10:51:29;23.00;118.99
584;HTU21D;27024;54.068;12.116;2023-07-29T10:56:35;22.87;118.99
584;HTU21D;27024;54.068;12.116;2023-07-29T10:59:32;23.71;118.99
584;HTU21D;27024;54.068;12.116;2023-07-29T11:02:02;23.41;118.99
584;HTU21D;27024;54.068;12.116;2023-07-29T11:04:30;23.29;118.99
584;HTU21D;27024;54.068;12.116;2023-07-29T11:09:53;23.24;118.99
584;HTU21D;27024;54.068;12.116;2023-07-29T11:15:21;23.44;118.99
584;HTU21D;27024;54.068;12.116;2023-07-29T11:17:58;23.24;118.99
584;HTU21D;27024;54.068;12.116;2023-07-29T11:20:33;23.13;118.99
584;HTU21D;27024;54.068;12.116;2023-07-29T11:23:02;23.43;118.99
584;HTU21D;27024;54.068;12.116;2023-07-29T11:25:30;23.46;118.99
584;HTU21D;27024;54.068;12.116;2023-07-29T11:27:59;23.57;118.99
584;HTU21D;27024;54.068;12.116;2023-07-29T11:30:29;23.56;118.99
584;HTU21D;27024;54.068;12.116;2023-07-29T11:32:58;23.62;118.99
584;HTU21D;27024;54.068;12.116;2023-07-29T11:35:25;23.17;118.99
584;HTU21D;27024;54.068;12.116;2023-07-29T11:37:54;23.27;118.99
584;HTU21D;27024;54.068;12.116;2023-07-29T11:40:22;23.12;118.99
584;HTU21D;27024;54.068;12.116;2023-07-29T11:42:51;22.97;118.99
584;HTU21D;27024;54.068;12.116;2023-07-29T11:45:19;23.44;118.99
584;HTU21D;27024;54.068;12.116;2023-07-29T11:47:46;23.57;118.99
584;HTU21D;27024;54.068;12.116;2023-07-29T11:50:14;23.50;118.99
584;HTU21D;27024;54.068;12.116;2023-07-29T11:52:46;23.38;118.99
584;HTU21D;27024;54.068;12.116;2023-07-29T11:55:14;23.29;118.99
584;HTU21D;27024;54.068;12.116;2023-07-29T11:57:42;22.55;118.99
584;HTU21D;27024;54.068;12.116;2023-07-29T12:00:10;22.10;118.99
584;HTU21D;27024;54.068;12.116;2023-07-29T12:02:40;21.22;118.99
584;HTU21D;27024;54.068;12.116;2023-07-29T12:05:09;20.61;118.99
584;HTU21D;27024;54.068;12.116;2023-07-29T12:07:42;20.16;118.99
584;HTU21D;27024;54.068;12.116;2023-07-29T12:10:09;19.37;118.99
584;HTU21D;27024;54.068;12.116;2023-07-29T12:12:50;18.78;118.99
584;HTU21D;27024;54.068;12.116;2023-07-29T12:15:25;18.25;118.99
584;HTU21D;27024;54.068;12.116;2023-07-29T12:17:54;17.93;118.99
584;HTU21D;27024;54.068;12.116;2023-07-29T12:20:23;17.72;118.99
584;HTU21D;27024;54.068;12.116;2023-07-29T12:22:58;17.85;118.99
584;HTU21D;27024;54.068;12.116;2023-07-29T12:25:26;17.87;118.99
584;HTU21D;27024;54.068;12.116;2023-07-29T12:27:53;17.76;118.99
584;HTU21D;27024;54.068;12.116;2023-07-29T12:30:21;17.70;118.99
584;HTU21D;27024;54.068;12.116;2023-07-29T12:32:48;17.58;118.99
584;HTU21D;27024;54.068;12.116;2023-07-29T12:35:15;17.76;118.99
584;HTU21D;27024;54.068;12.116;2023-07-29T12:37:42;17.92;118.99
584;HTU21D;27024;54.068;12.116;2023-07-29T12:40:23;18.00;118.99
584;HTU21D;27024;54.068;12.116;2023-07-29T12:42:51;17.96;118.99
584;HTU21D;27024;54.068;12.116;2023-07-29T12:45:18;18.13;118.99
584;HTU21D;27024;54.068;12.116;2023-07-29T12:47:45;18.15;118.99
584;HTU21D;27024;54.068;12.116;2023-07-29T12:50:12;18.17;118.99
584;HTU21D;27024;54.068;12.116;2023-07-29T12:52:39;18.25;118.99
584;HTU21D;27024;54.068;12.116;2023-07-29T12:55:06;18.30;118.99
584;HTU21D;27024;54.068;12.116;2023-07-29T12:57:35;18.54;118.99
584;HTU21D;27024;54.068;12.116;2023-07-29T13:00:03;18.64;118.99
584;HTU21D;27024;54.068;12.116;2023-07-29T13:02:31;18.97;118.99
584;HTU21D;27024;54.068;12.116;2023-07-29T13:04:58;19.17;118.99
584;HTU21D;27024;54.068;12.116;2023-07-29T13:07:25;19.35;118.99
584;HTU21D;27024;54.068;12.116;2023-07-29T13:09:52;19.51;118.99
584;HTU21D;27024;54.068;12.116;2023-07-29T13:12:19;19.50;118.99
584;HTU21D;27024;54.068;12.116;2023-07-29T13:14:46;19.62;118.99
584;HTU21D;27024;54.068;12.116;2023-07-29T13:17:13;19.67;118.99
584;HTU21D;27024;54.068;12.116;2023-07-29T13:19:40;19.63;118.99
584;HTU21D;27024;54.068;12.116;2023-07-29T13:22:07;19.70;118.99
584;HTU21D;27024;54.068;12.116;2023-07-29T13:24:34;19.90;118.99
584;HTU21D;27024;54.068;12.116;2023-07-29T13:27:01;20.07;118.99
584;HTU21D;27024;54.068;12.116;2023-07-29T13:29:28;20.06;118.99
584;HTU21D;27024;54.068;12.116;2023-07-29T13:31:54;20.21;118.99
584;HTU21D;27024;54.068;12.116;2023-07-29T13:34:21;20.22;118.99
584;HTU21D;27024;54.068;12.116;2023-07-29T13:36:48;20.39;118.99
584;HTU21D;27024;54.068;12.116;2023-07-29T13:39:15;20.68;118.99
584;HTU21D;27024;54.068;12.116;2023-07-29T13:41:42;20.83;118.99
584;HTU21D;27024;54.068;12.116;2023-07-29T13:44:09;20.81;118.99
584;HTU21D;27024;54.068;12.116;2023-07-29T13:46:36;20.74;118.99
584;HTU21D;27024;54.068;12.116;2023-07-29T13:49:03;20.93;118.99
584;HTU21D;27024;54.068;12.116;2023-07-29T13:51:30;20.99;118.99
584;HTU21D;27024;54.068;12.116;2023-07-29T13:53:57;21.00;118.99
584;HTU21D;27024;54.068;12.116;2023-07-29T13:56:24;21.14;118.99
584;HTU21D;27024;54.068;12.116;2023-07-29T13:58:51;21.18;118.99
584;HTU21D;27024;54.068;12.116;2023-07-29T14:01:18;21.04;118.99
584;HTU21D;27024;54.068;12.116;2023-07-29T14:03:45;20.99;118.99
584;HTU21D;27024;54.068;12.116;2023-07-29T14:06:11;21.02;118.99
584;HTU21D;27024;54.068;12.116;2023-07-29T14:08:38;20.95;118.99
584;HTU21D;27024;54.068;12.116;2023-07-29T14:11:07;20.94;118.99
584;HTU21D;27024;54.068;12.116;2023-07-29T14:13:34;20.94;118.99
584;HTU21D;27024;54.068;12.116;2023-07-29T14:16:01;21.03;118.99
584;HTU21D;27024;54.068;12.116;2023-07-29T14:18:30;21.05;118.99
584;HTU21D;27024;54.068;12.116;2023-07-29T14:20:57;20.96;118.99
584;HTU21D;27024;54.068;12.116;2023-07-29T14:23:24;21.05;118.99
584;HTU21D;27024;54.068;12.116;2023-07-29T14:25:51;21.07;118.99
584;HTU21D;27024;54.068;12.116;2023-07-29T14:28:18;21.09;118.99
584;HTU21D;27024;54.068;12.116;2023-07-29T14:30:44;21.55;118.99
584;HTU21D;27024;54.068;12.116;2023-07-29T14:33:11;21.93;118.99
584;HTU21D;27024;54.068;12.116;2023-07-29T14:35:38;22.33;118.99
584;HTU21D;27024;54.068;12.116;2023-07-29T14:38:05;22.61;118.99
584;HTU21D;27024;54.068;12.116;2023-07-29T14:40:32;23.00;118.99
584;HTU21D;27024;54.068;12.116;2023-07-29T14:42:59;23.36;118.99
584;HTU21D;27024;54.068;12.116;2023-07-29T14:45:26;23.41;118.99
584;HTU21D;27024;54.068;12.116;2023-07-29T14:47:53;23.86;118.99
584;HTU21D;27024;54.068;12.116;2023-07-29T14:50:20;23.91;118.99
584;HTU21D;27024;54.068;12.116;2023-07-29T14:52:47;23.88;118.99
584;HTU21D;27024;54.068;12.116;2023-07-29T14:55:14;23.42;118.99
584;HTU21D;27024;54.068;12.116;2023-07-29T14:57:41;22.92;118.99
584;HTU21D;27024;54.068;12.116;2023-07-29T15:00:08;22.67;118.99
584;HTU21D;27024;54.068;12.116;2023-07-29T15:02:35;22.52;118.99
584;HTU21D;27024;54.068;12.116;2023-07-29T15:05:03;22.65;118.99
584;HTU21D;27024;54.068;12.116;2023-07-29T15:07:30;22.47;118.99
584;HTU21D;27024;54.068;12.116;2023-07-29T15:09:57;22.39;118.99
584;HTU21D;27024;54.068;12.116;2023-07-29T15:12:24;22.14;118.99
584;HTU21D;27024;54.068;12.116;2023-07-29T15:14:51;22.12;118.99
584;HTU21D;27024;54.068;12.116;2023-07-29T15:17:18;22.10;118.99
584;HTU21D;27024;54.068;12.116;2023-07-29T15:19:45;21.94;118.99
584;HTU21D;27024;54.068;12.116;2023-07-29T15:22:16;21.84;118.99
584;HTU21D;27024;54.068;12.116;2023-07-29T15:24:43;21.69;118.99
584;HTU21D;27024;54.068;12.116;2023-07-29T15:27:10;21.70;118.99
584;HTU21D;27024;54.068;12.116;2023-07-29T15:29:37;21.70;118.99